Time;durP1;ratioP1;P1;durP2;ratioP2;P2;SDS_P1;SDS_P2;PMS_P1;PMS_P2;Temp;Humidity;BMP_temperature;BMP_pressure;BME280_temperature;BME280_humidity;BME280_pressure;Samples;Min_cycle;Max_cycle;Signal;HPM_P1;HPM_P2
2021/04/06 00:02:15;;;;;;;2.47;0.80;;;9.70;99.80;;;9.09;61.99;99408.56;5030114;28;20029;-50
2021/04/06 00:04:45;;;;;;;3.05;1.05;;;9.70;99.60;;;9.06;61.53;99412.31;5009395;28;20150;-46
2021/04/06 00:07:14;;;;;;;1.90;0.60;;;9.60;99.00;;;9.06;60.82;99414.09;5012441;28;20041;-49
2021/04/06 00:09:45;;;;;;;2.45;0.88;;;9.60;98.50;;;9.06;60.67;99403.69;5011648;28;20045;-48
2021/04/06 00:12:15;;;;;;;1.95;0.60;;;9.60;98.20;;;8.99;60.65;99404.34;5011646;28;20087;-45
2021/04/06 00:14:43;;;;;;;2.70;0.85;;;9.60;97.60;;;8.95;60.86;99397.03;5010646;28;20030;-46
2021/04/06 00:17:12;;;;;;;4.05;1.00;;;9.50;97.70;;;8.92;60.37;99398.19;5009779;28;20033;-49
2021/04/06 00:19:42;;;;;;;2.50;0.60;;;9.50;97.60;;;8.90;60.47;99392.31;4996275;28;20420;-47
2021/04/06 00:22:12;;;;;;;2.40;0.80;;;9.50;97.40;;;8.88;60.46;99403.84;5005428;28;20076;-48
2021/04/06 00:24:44;;;;;;;2.20;0.60;;;9.50;97.10;;;8.87;59.57;99402.22;5011346;28;20042;-49
2021/04/06 00:27:18;;;;;;;1.77;0.65;;;9.40;96.90;;;8.87;59.68;99400.44;5029730;28;20064;-46
2021/04/06 00:29:51;;;;;;;4.85;0.70;;;9.40;96.60;;;8.87;60.07;99390.03;5028678;28;20666;-44
2021/04/06 00:32:20;;;;;;;1.10;0.50;;;9.40;96.60;;;8.89;59.93;99388.09;5012102;28;20570;-46
2021/04/06 00:34:50;;;;;;;3.55;0.77;;;9.40;96.50;;;8.89;59.54;99388.09;5028889;28;20042;-43
2021/04/06 00:37:17;;;;;;;2.65;0.82;;;9.40;96.50;;;8.83;59.89;99383.53;5012124;28;20694;-47
2021/04/06 00:39:44;;;;;;;2.25;0.60;;;9.40;96.50;;;8.82;59.94;99389.72;5021762;28;20034;-48
2021/04/06 00:42:20;;;;;;;3.40;0.63;;;9.30;96.50;;;8.82;60.17;99387.13;5011510;28;20037;-48
2021/04/06 00:44:54;;;;;;;;;;;9.40;96.70;;;8.81;60.77;99380.28;5024183;28;20048;-43
2021/04/06 00:47:28;;;;;;;2.03;0.73;;;9.40;97.20;;;8.80;62.09;99378.66;5009642;28;19924;-53
2021/04/06 00:50:06;;;;;;;4.45;1.00;;;9.40;98.20;;;8.75;62.52;99367.94;5014519;28;20121;-48
2021/04/06 00:52:33;;;;;;;2.55;0.75;;;9.30;99.70;;;8.64;64.25;99363.03;5029183;28;20041;-46
2021/04/06 00:55:00;;;;;;;2.72;0.50;;;9.30;99.90;;;8.59;64.30;99365.28;5027098;28;20053;-49
2021/04/06 00:57:29;;;;;;;3.22;0.70;;;9.20;99.90;;;8.55;66.05;99369.19;5029569;28;20061;-49
2021/04/06 01:00:28;;;;;;;4.32;0.82;;;9.20;99.90;;;8.53;66.51;99369.34;5027259;28;20026;-45
2021/04/06 01:03:17;;;;;;;2.75;0.60;;;9.10;99.90;;;8.49;67.28;99365.47;5027970;28;20136;-52
2021/04/06 01:06:07;;;;;;;1.50;0.60;;;9.10;99.90;;;8.45;69.12;99353.75;5007352;28;20045;-49
2021/04/06 01:08:37;;;;;;;4.40;0.80;;;9.00;99.90;;;8.40;68.96;99350.00;5016835;28;20041;-47
2021/04/06 01:11:06;;;;;;;2.22;0.85;;;9.00;99.90;;;8.32;68.23;99348.16;5014430;28;20045;-46
2021/04/06 01:13:34;;;;;;;3.05;0.80;;;8.90;99.90;;;8.27;68.36;99343.44;5009067;28;20030;-47
2021/04/06 01:16:02;;;;;;;2.83;0.70;;;8.90;99.90;;;8.30;68.17;99337.13;5022156;28;20465;-49
2021/04/06 01:18:29;;;;;;;1.38;0.50;;;8.90;99.90;;;8.24;69.91;99330.78;5008080;28;20175;-47
2021/04/06 01:20:56;;;;;;;1.55;1.02;;;8.80;99.90;;;8.19;69.57;99327.84;5028155;28;20092;-45
2021/04/06 01:23:23;;;;;;;3.78;1.00;;;8.80;99.90;;;8.16;69.81;99324.75;5025369;28;20026;-49
2021/04/06 01:25:58;;;;;;;1.40;0.60;;;8.70;99.90;;;8.17;70.19;99326.38;5010572;28;20033;-48
2021/04/06 01:28:31;;;;;;;2.60;1.00;;;8.70;99.90;;;8.15;72.08;99318.75;5009325;28;20067;-47
2021/04/06 01:31:00;;;;;;;3.03;1.00;;;8.70;99.90;;;8.12;70.86;99321.66;5027609;28;20292;-44
2021/04/06 01:33:31;;;;;;;1.30;0.80;;;8.70;99.90;;;8.10;71.05;99307.19;5002212;28;20121;-50
2021/04/06 01:36:00;;;;;;;3.72;1.00;;;8.70;99.90;;;8.09;71.53;99301.19;4990831;28;20034;-46
2021/04/06 01:38:28;;;;;;;2.40;1.33;;;8.60;99.90;;;8.10;70.64;99297.63;5013499;28;20049;-46
2021/04/06 01:41:04;;;;;;;2.53;1.02;;;8.70;99.90;;;8.08;72.76;99296.97;5009623;28;20029;-46
2021/04/06 01:43:32;;;;;;;2.45;1.05;;;8.60;99.90;;;8.05;71.82;99289.50;5027634;28;20136;-46
2021/04/06 01:45:58;;;;;;;3.05;0.95;;;8.60;99.90;;;8.03;71.85;99288.88;5026823;28;20636;-45
2021/04/06 01:48:32;;;;;;;4.72;1.50;;;8.60;99.90;;;8.04;73.05;99285.28;5025401;28;20088;-49
2021/04/06 01:50:59;;;;;;;3.85;1.40;;;8.60;99.90;;;8.02;72.50;99273.47;5014142;28;20497;-49
2021/04/06 01:53:25;;;;;;;2.53;1.35;;;8.60;99.90;;;8.03;72.48;99282.88;5008254;28;20045;-47
2021/04/06 01:56:03;;;;;;;2.17;1.00;;;8.60;99.90;;;8.01;73.07;99283.03;5008253;28;20045;-50
2021/04/06 01:58:31;;;;;;;2.30;1.30;;;8.60;99.90;;;7.99;72.09;99274.59;5025405;28;20037;-47
2021/04/06 02:01:32;;;;;;;3.03;1.30;;;8.50;99.90;;;8.04;72.16;99266.31;5023430;28;20033;-52
2021/04/06 02:04:00;;;;;;;2.38;1.00;;;8.60;99.90;;;8.03;73.04;99262.13;5023792;28;20041;-46
2021/04/06 02:06:33;;;;;;;5.22;1.23;;;8.60;99.90;;;8.03;72.95;99252.56;5026187;28;20033;-46
2021/04/06 02:09:00;;;;;;;4.50;1.08;;;8.60;99.90;;;7.99;72.49;99259.84;5028037;28;20041;-46
2021/04/06 02:11:33;;;;;;;1.48;0.85;;;8.50;99.90;;;7.97;73.26;99242.81;5009522;28;20072;-48
2021/04/06 02:14:10;;;;;;;5.07;1.40;;;8.50;99.90;;;8.01;72.55;99244.13;5027347;28;20477;-45
2021/04/06 02:16:53;;;;;;;4.10;1.30;;;8.50;99.90;;;8.04;72.50;99241.19;5028318;28;20041;-49
2021/04/06 02:19:43;;;;;;;2.28;1.13;;;8.60;99.90;;;8.06;73.23;99243.63;5027631;28;20044;-48
2021/04/06 02:22:11;;;;;;;7.28;1.30;;;8.50;99.90;;;8.02;72.14;99247.53;5012324;28;20046;-46
2021/04/06 02:24:55;;;;;;;2.88;1.25;;;8.60;99.90;;;8.04;72.84;99236.00;4994349;28;20811;-48
2021/04/06 02:27:30;;;;;;;2.95;1.15;;;8.60;99.90;;;8.06;71.74;99228.88;5012523;28;20710;-49
2021/04/06 02:30:10;;;;;;;4.50;0.82;;;8.60;99.90;;;8.13;70.82;99229.06;5015055;28;20064;-43
2021/04/06 02:32:37;;;;;;;5.05;0.77;;;8.60;99.90;;;8.14;70.58;99233.28;5028751;28;20041;-44
2021/04/06 02:35:08;;;;;;;2.40;0.93;;;8.60;99.90;;;8.16;69.95;99224.38;5026977;28;20033;-46
2021/04/06 02:37:38;;;;;;;2.63;1.50;;;8.70;99.90;;;8.19;69.81;99220.66;5028414;28;20124;-48
2021/04/06 02:40:08;;;;;;;1.92;1.17;;;8.70;99.90;;;8.20;69.73;99214.50;5012261;28;20548;-49
2021/04/06 02:42:44;;;;;;;2.08;0.80;;;8.70;99.90;;;8.20;69.33;99217.91;5012440;28;20128;-46
2021/04/06 02:45:21;;;;;;;3.47;0.70;;;8.70;99.90;;;8.19;69.76;99212.88;5012142;28;20548;-54
2021/04/06 02:48:13;;;;;;;2.00;0.70;;;8.70;99.90;;;8.21;69.47;99208.31;5014497;28;20030;-48
2021/04/06 02:50:40;;;;;;;3.72;1.00;;;8.70;99.90;;;8.25;68.55;99210.44;5001015;28;20093;-52
2021/04/06 02:53:15;;;;;;;5.40;0.77;;;8.80;99.90;;;8.25;68.19;99207.84;5013568;28;20095;-50
2021/04/06 02:55:41;;;;;;;1.73;0.60;;;8.80;99.90;;;8.32;67.38;99206.28;5013504;28;20129;-48
2021/04/06 02:58:16;;;;;;;1.75;0.80;;;8.80;99.90;;;8.34;67.21;99210.50;5030140;28;20087;-49
2021/04/06 03:03:27;;;;;;;2.50;0.95;;;8.90;99.90;;;8.35;66.47;99196.53;5148717;23;20062;-43
2021/04/06 03:06:07;;;;;;;2.15;0.50;;;8.90;99.90;;;8.37;66.25;99187.63;4991755;28;20042;-45
2021/04/06 03:08:36;;;;;;;3.15;1.10;;;8.90;99.90;;;8.39;66.31;99184.88;4991210;28;20132;-50
2021/04/06 03:11:08;;;;;;;1.10;0.65;;;8.90;99.90;;;8.40;66.24;99186.50;5006311;28;20489;-43
2021/04/06 03:13:40;;;;;;;2.35;0.82;;;8.90;99.90;;;8.41;66.39;99190.72;4991533;28;20035;-49
2021/04/06 03:16:09;;;;;;;1.80;0.88;;;8.90;99.90;;;8.40;66.58;99176.13;5010883;28;20038;-48
2021/04/06 03:18:38;;;;;;;3.38;0.90;;;8.90;99.90;;;8.41;66.58;99172.53;5010722;28;20117;-43
2021/04/06 03:21:12;;;;;;;1.50;0.50;;;8.90;99.90;;;8.44;66.74;99172.22;5010732;28;20045;-50
2021/04/06 03:23:38;;;;;;;1.92;0.40;;;8.90;99.90;;;8.45;66.78;99171.25;5010581;28;20073;-46
2021/04/06 03:26:07;;;;;;;2.58;0.88;;;9.00;99.90;;;8.43;67.01;99168.00;5009793;28;20034;-54
2021/04/06 03:28:37;;;;;;;4.00;0.52;;;9.00;99.90;;;8.41;67.27;99160.38;5010203;28;20140;-50
2021/04/06 03:31:16;;;;;;;1.63;0.40;;;9.00;99.90;;;8.41;67.61;99160.38;5010471;28;20095;-44
2021/04/06 03:33:46;;;;;;;3.38;0.70;;;9.00;99.90;;;8.45;66.93;99166.06;5010706;28;20065;-49
2021/04/06 03:36:26;;;;;;;2.28;0.60;;;9.00;99.90;;;8.47;66.83;99161.53;5008849;28;20065;-48
2021/04/06 03:38:58;;;;;;;2.55;0.55;;;9.00;99.90;;;8.49;66.43;99157.78;5010633;28;20034;-54
2021/04/06 03:41:28;;;;;;;2.47;1.00;;;9.00;99.90;;;8.50;66.39;99154.22;4978213;28;20066;-48
2021/04/06 03:44:09;;;;;;;2.90;0.82;;;9.00;99.90;;;8.54;66.21;99155.50;4977170;28;20042;-53
2021/04/06 03:46:38;;;;;;;2.55;0.52;;;9.00;99.90;;;8.55;65.95;99162.31;4977744;28;20342;-52
2021/04/06 03:49:13;;;;;;;6.18;0.60;;;9.00;99.90;;;8.57;66.18;99159.53;5009405;28;20048;-53
2021/04/06 03:51:57;;;;;;;1.63;0.60;;;9.10;99.90;;;8.57;66.63;99164.72;5010110;28;20501;-48
2021/04/06 03:54:48;;;;;;;1.88;0.60;;;9.10;99.90;;;8.60;66.54;99154.03;5010325;28;20151;-41
2021/04/06 03:57:28;;;;;;;1.95;0.50;;;9.10;99.90;;;8.60;66.07;99164.41;5008506;28;20088;-49
2021/04/06 03:59:55;;;;;;;3.10;0.60;;;9.10;99.90;;;8.63;65.89;99156.28;5007558;28;20133;-44
2021/04/06 04:02:22;;;;;;;3.15;0.77;;;9.10;99.90;;;8.67;65.75;99160.19;5009999;28;20037;-48
2021/04/06 04:04:51;;;;;;;3.35;0.80;;;9.20;99.90;;;8.69;65.68;99153.03;5010155;28;20053;-46
2021/04/06 04:07:17;;;;;;;2.58;0.82;;;9.20;99.90;;;8.72;65.44;99157.91;5009803;28;20061;-50
2021/04/06 04:09:42;;;;;;;7.28;1.02;;;9.20;99.90;;;8.72;65.18;99159.69;5008994;28;20124;-47
2021/04/06 04:12:09;;;;;;;3.00;0.50;;;9.20;99.90;;;8.74;64.77;99158.56;5009881;28;20038;-45
2021/04/06 04:14:35;;;;;;;1.88;0.80;;;9.30;99.90;;;8.73;64.85;99164.72;5010032;28;20103;-47
2021/04/06 04:17:01;;;;;;;2.90;0.63;;;9.30;99.90;;;8.73;65.17;99162.13;5009672;28;20125;-47
2021/04/06 04:19:28;;;;;;;1.55;0.70;;;9.30;99.90;;;8.73;64.95;99164.72;5008830;28;20108;-45
2021/04/06 04:21:54;;;;;;;1.70;0.75;;;9.30;99.90;;;8.74;65.40;99161.16;5009536;28;20568;-48
2021/04/06 04:24:21;;;;;;;6.03;1.00;;;9.30;99.90;;;8.72;65.43;99152.72;5008391;28;20080;-48
2021/04/06 04:26:47;;;;;;;2.33;0.70;;;9.30;99.90;;;8.68;66.28;99151.44;5009633;28;20030;-48
2021/04/06 04:29:13;;;;;;;2.22;0.68;;;9.20;99.90;;;8.63;66.29;99151.09;5009822;28;20052;-44
2021/04/06 04:31:39;;;;;;;2.63;0.75;;;9.20;99.90;;;8.59;67.08;99157.59;5007708;28;20049;-44
2021/04/06 04:34:05;;;;;;;3.80;0.85;;;9.20;99.90;;;8.52;67.14;99159.22;5008427;28;20046;-44
2021/04/06 04:36:31;;;;;;;1.30;0.90;;;9.10;99.90;;;8.39;68.88;99154.53;5009283;28;20509;-50
2021/04/06 04:38:57;;;;;;;2.78;0.80;;;9.00;99.90;;;8.23;69.87;99152.72;5009693;28;20060;-50
2021/04/06 04:41:23;;;;;;;3.22;1.25;;;8.90;99.90;;;8.17;70.01;99150.75;5007598;28;20675;-47
2021/04/06 04:43:49;;;;;;;4.63;1.20;;;8.80;99.90;;;8.10;71.27;99156.75;5009523;28;20038;-46
2021/04/06 04:46:15;;;;;;;1.00;0.82;;;8.60;99.90;;;8.07;71.43;99151.88;5008440;28;20042;-49
2021/04/06 04:48:41;;;;;;;5.18;1.42;;;8.60;99.90;;;8.11;71.20;99156.59;5009319;28;20058;-52
2021/04/06 04:51:07;;;;;;;4.38;1.30;;;8.70;99.90;;;8.12;70.75;99160.81;5008357;28;20030;-48
2021/04/06 04:53:33;;;;;;;3.60;1.05;;;8.60;99.90;;;8.14;70.78;99153.66;5009485;28;20085;-53
2021/04/06 04:55:59;;;;;;;2.67;0.90;;;8.70;99.90;;;8.15;71.22;99149.28;5008051;28;20505;-45
2021/04/06 04:58:24;;;;;;;4.13;1.35;;;8.70;99.90;;;8.19;70.57;99155.78;5009079;28;20057;-45
2021/04/06 05:00:50;;;;;;;5.03;1.52;;;8.70;99.90;;;8.20;70.26;99144.44;5007220;28;20041;-48
2021/04/06 05:03:16;;;;;;;1.50;0.98;;;8.70;99.90;;;8.25;70.16;99155.16;5007928;28;20062;-45
2021/04/06 05:05:42;;;;;;;2.63;0.90;;;8.80;99.90;;;8.27;70.58;99161.78;5008909;28;20565;-43
2021/04/06 05:08:08;;;;;;;2.80;1.25;;;8.80;99.90;;;8.26;70.63;99167.16;5009110;28;20145;-53
2021/04/06 05:10:34;;;;;;;2.42;1.17;;;8.80;99.90;;;8.24;70.12;99163.91;5007577;28;21038;-53
2021/04/06 05:13:00;;;;;;;4.05;1.08;;;8.80;99.90;;;8.20;70.87;99158.22;5005561;28;20422;-44
2021/04/06 05:15:29;;;;;;;4.82;1.60;;;8.80;99.90;;;8.10;72.36;99149.78;5008122;28;20046;-53
2021/04/06 05:17:55;;;;;;;2.63;1.80;;;8.60;99.90;;;7.97;73.12;99152.84;5007688;28;20033;-55
2021/04/06 05:20:21;;;;;;;5.85;1.73;;;8.60;99.90;;;7.93;73.67;99146.38;5009482;28;20030;-47
2021/04/06 05:22:47;;;;;;;4.70;1.67;;;8.50;99.90;;;7.92;73.92;99149.13;4991419;28;20406;-50
2021/04/06 05:25:13;;;;;;;4.13;1.88;;;8.50;99.90;;;7.89;74.21;99152.03;5008672;28;20492;-44
2021/04/06 05:27:39;;;;;;;3.83;1.38;;;8.50;99.90;;;7.86;74.80;99147.16;5008563;28;20405;-53
2021/04/06 05:30:06;;;;;;;3.80;1.83;;;8.40;99.90;;;7.83;74.91;99137.09;5008951;28;20037;-52
2021/04/06 05:32:32;;;;;;;5.18;2.47;;;8.40;99.90;;;7.75;75.73;99144.84;5008443;28;20034;-57
2021/04/06 05:34:58;;;;;;;7.35;2.13;;;8.30;99.90;;;7.64;76.84;99145.94;5008772;28;20466;-49
2021/04/06 05:37:24;;;;;;;4.90;1.90;;;8.30;99.90;;;7.63;76.70;99152.91;5005546;28;20061;-50
2021/04/06 05:39:50;;;;;;;3.50;1.77;;;8.20;99.90;;;7.65;77.22;99155.34;5008405;28;20099;-49
2021/04/06 05:42:17;;;;;;;6.00;1.30;;;8.20;99.90;;;7.65;77.89;99153.56;5008399;28;20037;-54
2021/04/06 05:44:45;;;;;;;2.67;1.73;;;8.20;99.90;;;7.59;78.08;99145.59;4990895;28;20166;-49
2021/04/06 05:47:38;;;;;;;3.80;1.83;;;8.20;99.90;;;7.55;79.35;99147.72;5005660;28;20365;-43
2021/04/06 05:50:07;;;;;;;4.10;2.30;;;8.10;99.90;;;7.48;78.88;99141.56;4992137;28;20042;-53
2021/04/06 05:52:34;;;;;;;3.00;2.13;;;8.10;99.90;;;7.41;79.40;99148.31;4990058;28;20037;-56
2021/04/06 05:55:06;;;;;;;4.88;2.50;;;8.00;99.90;;;7.39;80.35;99158.03;5008854;28;20049;-53
2021/04/06 05:57:32;;;;;;;8.63;3.65;;;8.00;99.90;;;7.36;80.56;99155.75;5007392;28;20042;-42
2021/04/06 05:59:59;;;;;;;4.07;1.95;;;7.90;99.90;;;7.36;80.33;99162.72;5008170;28;20034;-51
2021/04/06 06:02:25;;;;;;;7.85;3.20;;;7.90;99.90;;;7.44;79.26;99160.16;5008025;28;20034;-51
2021/04/06 06:04:54;;;;;;;5.45;1.83;;;8.00;99.90;;;7.50;79.38;99164.72;5008507;28;20038;-52
2021/04/06 06:07:20;;;;;;;4.90;2.08;;;8.00;99.90;;;7.54;78.74;99172.03;5006788;28;20160;-51
2021/04/06 06:09:46;;;;;;;6.95;2.63;;;8.10;99.90;;;7.53;79.92;99179.97;5007221;28;20226;-51
2021/04/06 06:12:19;;;;;;;3.72;2.25;;;8.10;99.90;;;7.55;80.13;99186.63;5008074;28;20099;-52
2021/04/06 06:14:51;;;;;;;6.05;1.73;;;8.10;99.90;;;7.54;78.50;99185.00;5006944;28;20121;-46
2021/04/06 06:17:21;;;;;;;1.60;0.30;;;8.10;99.90;;;7.32;75.37;99194.13;5007986;28;20439;-52
2021/04/06 06:19:53;;;;;;;0.28;0.10;;;8.00;99.90;;;6.60;76.91;99223.75;5007299;28;20041;-48
2021/04/06 06:22:27;;;;;;;0.10;0.00;;;7.50;99.90;;;5.66;80.01;99243.94;5008095;28;20038;-51
2021/04/06 06:25:22;;;;;;;0.00;0.00;;;6.70;99.90;;;5.04;81.83;99277.28;5007680;28;20037;-55
2021/04/06 06:27:48;;;;;;;0.20;0.00;;;5.90;99.90;;;4.74;82.60;99266.16;4987100;28;20081;-46
2021/04/06 06:30:36;;;;;;;0.30;0.00;;;5.40;99.90;;;4.54;83.11;99275.69;5005392;28;20113;-49
2021/04/06 06:33:25;;;;;;;0.10;0.00;;;5.20;99.90;;;4.37;83.05;99288.41;5008130;28;20045;-51
2021/04/06 06:36:15;;;;;;;0.03;0.00;;;5.00;99.90;;;4.08;83.84;99317.53;5007768;28;20112;-51
2021/04/06 06:38:42;;;;;;;0.38;0.05;;;4.70;99.90;;;3.81;85.53;99317.28;5007284;28;20050;-45
2021/04/06 06:41:11;;;;;;;0.57;0.00;;;4.50;99.90;;;3.59;85.30;99344.03;5006215;28;20042;-48
2021/04/06 06:43:51;;;;;;;0.80;0.00;;;4.20;99.90;;;3.42;85.40;99378.09;5005970;28;20037;-48
2021/04/06 06:46:30;;;;;;;0.10;0.00;;;4.10;99.90;;;3.26;85.94;99412.00;4990632;28;20457;-47
2021/04/06 06:49:06;;;;;;;0.10;0.00;;;3.90;99.90;;;3.26;85.40;99415.38;5006079;28;20026;-44
2021/04/06 06:51:37;;;;;;;0.25;0.00;;;3.90;99.90;;;3.20;84.63;99439.03;5006584;28;20049;-45
2021/04/06 06:54:07;;;;;;;0.00;0.00;;;3.80;99.90;;;3.25;83.94;99448.97;5007286;28;20034;-43
2021/04/06 06:56:34;;;;;;;1.98;0.30;;;3.70;99.90;;;3.20;83.53;99440.81;5007436;28;20034;-47
2021/04/06 06:59:00;;;;;;;0.30;0.00;;;3.80;99.90;;;2.98;84.77;99416.75;5007541;28;20029;-48
2021/04/06 07:01:30;;;;;;;0.10;0.00;;;3.60;99.90;;;2.82;85.96;99443.84;5006196;28;20038;-49
2021/04/06 07:04:13;;;;;;;0.55;0.00;;;3.40;99.90;;;2.63;86.36;99426.44;5006959;28;20054;-46
2021/04/06 07:06:45;;;;;;;0.03;0.00;;;3.20;99.90;;;2.54;87.31;99424.59;5011040;28;20099;-48
2021/04/06 07:09:25;;;;;;;0.45;0.00;;;3.10;99.90;;;2.45;87.97;99427.84;5010757;28;20524;-45
2021/04/06 07:12:03;;;;;;;1.65;0.00;;;3.00;99.90;;;2.45;88.01;99443.28;5009733;28;20073;-51
2021/04/06 07:14:31;;;;;;;0.10;0.00;;;3.00;99.90;;;2.48;88.12;99474.72;5010731;28;20044;-47
2021/04/06 07:17:03;;;;;;;1.23;0.00;;;3.00;99.90;;;2.62;86.98;99460.81;5010647;28;20470;-50
2021/04/06 07:19:34;;;;;;;0.50;0.00;;;3.10;99.90;;;2.73;86.83;99476.25;5011017;28;20069;-44
2021/04/06 07:22:03;;;;;;;0.00;0.00;;;3.20;99.90;;;2.89;86.52;99479.22;5009595;28;20037;-47
2021/04/06 07:24:37;;;;;;;0.15;0.00;;;3.30;99.90;;;2.93;86.64;99500.41;5010304;28;20548;-45
2021/04/06 07:27:14;;;;;;;0.50;0.10;;;3.40;99.90;;;2.97;87.17;99505.19;4993367;28;20038;-44
2021/04/06 07:29:42;;;;;;;0.75;0.20;;;3.40;99.90;;;3.04;87.60;99522.72;5010460;28;20214;-45
2021/04/06 07:32:15;;;;;;;0.40;0.10;;;3.50;99.90;;;3.07;87.57;99518.16;5010585;28;20034;-46
2021/04/06 07:34:43;;;;;;;0.10;0.00;;;3.60;99.90;;;3.05;88.10;99525.19;5008935;28;20072;-47
2021/04/06 07:37:10;;;;;;;0.60;0.10;;;3.60;99.90;;;3.08;88.15;99524.13;5010512;28;20030;-51
2021/04/06 07:39:37;;;;;;;0.40;0.10;;;3.60;99.90;;;3.13;87.85;99533.13;5010567;28;20373;-52
2021/04/06 07:42:03;;;;;;;0.77;0.00;;;3.70;99.90;;;2.98;84.57;99524.03;4992911;28;20022;-54
2021/04/06 07:44:35;;;;;;;0.03;0.00;;;3.50;99.90;;;2.87;84.62;99540.28;4991855;28;20076;-47
2021/04/06 07:47:01;;;;;;;0.28;0.00;;;3.40;99.90;;;2.82;84.36;99526.16;5010427;28;20041;-52
2021/04/06 07:49:27;;;;;;;0.00;0.00;;;3.30;99.90;;;2.81;84.28;99524.53;5010406;28;20084;-55
2021/04/06 07:51:57;;;;;;;0.00;0.00;;;3.30;99.90;;;2.79;84.15;99516.94;5010544;28;20046;-53
2021/04/06 07:54:46;;;;;;;0.10;0.00;;;3.30;99.90;;;2.86;82.91;99523.22;5009374;28;20429;-48
2021/04/06 07:57:12;;;;;;;0.32;0.00;;;3.20;99.90;;;2.85;83.95;99521.56;5010183;28;20069;-50
2021/04/06 07:59:49;;;;;;;0.98;0.20;;;3.30;99.90;;;2.93;85.27;99557.81;4992547;28;20030;-49
2021/04/06 08:02:15;;;;;;;0.00;0.00;;;3.30;99.90;;;2.85;84.65;99549.88;5010135;28;20034;-48
2021/04/06 08:04:51;;;;;;;1.58;0.10;;;3.30;99.90;;;2.84;84.83;99544.84;5009005;28;20166;-51
2021/04/06 08:07:23;;;;;;;0.95;0.10;;;3.30;99.90;;;2.88;84.59;99536.78;5009390;28;20087;-50
2021/04/06 08:09:49;;;;;;;1.05;0.10;;;3.30;99.90;;;2.96;83.36;99544.72;5009995;28;20644;-51
2021/04/06 08:12:27;;;;;;;0.20;0.00;;;3.30;99.90;;;3.02;80.95;99556.31;5010081;28;20049;-50
2021/04/06 08:15:09;;;;;;;0.32;0.32;;;3.50;99.90;;;3.02;82.25;99561.44;5009732;28;20034;-43
2021/04/06 08:17:42;;;;;;;1.48;0.20;;;3.40;99.90;;;3.02;82.88;99550.34;5008077;28;20454;-43
2021/04/06 08:20:14;;;;;;;0.80;0.20;;;3.50;99.90;;;3.02;83.43;99542.63;5009994;28;20037;-53
2021/04/06 08:22:43;;;;;;;0.50;0.10;;;3.50;99.90;;;3.04;81.87;99538.16;5009700;28;20107;-47
2021/04/06 08:25:21;;;;;;;0.10;0.00;;;3.50;99.90;;;3.05;80.46;99545.78;5010037;28;20048;-52
2021/04/06 08:27:55;;;;;;;1.67;0.00;;;3.50;99.90;;;3.08;79.82;99552.44;5006825;28;20041;-45
2021/04/06 08:30:34;;;;;;;0.28;0.00;;;3.50;99.90;;;3.09;77.64;99547.19;5008403;28;20508;-46
2021/04/06 08:33:00;;;;;;;1.30;0.00;;;3.50;99.90;;;3.09;78.66;99557.47;5010081;28;20553;-50
2021/04/06 08:35:52;;;;;;;0.22;0.00;;;3.50;99.90;;;3.07;76.96;99585.06;5008405;28;20156;-45
2021/04/06 08:38:24;;;;;;;0.10;0.00;;;3.50;99.90;;;3.04;78.62;99574.19;5009854;28;20054;-46
2021/04/06 08:41:13;;;;;;;0.30;0.00;;;3.50;99.90;;;2.95;78.13;99581.69;5007203;28;20045;-48
2021/04/06 08:43:52;;;;;;;2.25;0.00;;;3.40;99.90;;;2.95;74.53;99601.44;5009794;28;20427;-54
2021/04/06 08:46:49;;;;;;;0.32;0.10;;;3.40;99.90;;;2.91;78.00;99593.16;4992353;28;20048;-48
2021/04/06 08:49:17;;;;;;;0.63;0.00;;;3.30;99.90;;;2.87;77.75;99625.19;5009865;28;20042;-46
2021/04/06 08:51:55;;;;;;;0.03;0.00;;;3.30;99.90;;;2.81;78.27;99605.09;5008543;28;20038;-48
2021/04/06 08:54:29;;;;;;;0.13;0.10;;;3.30;99.90;;;2.68;76.36;99599.22;5024700;28;20049;-51
2021/04/06 08:56:59;;;;;;;0.08;0.00;;;3.20;99.90;;;2.68;77.46;99604.38;5009370;28;20072;-48
2021/04/06 08:59:35;;;;;;;0.65;0.00;;;3.10;99.90;;;2.70;77.38;99615.38;5009678;28;20140;-49
2021/04/06 09:02:10;;;;;;;0.00;0.00;;;3.10;99.90;;;2.70;77.14;99614.56;5007530;28;20021;-50
2021/04/06 09:04:56;;;;;;;0.63;0.00;;;3.20;99.90;;;2.73;76.95;99628.00;5009562;28;20156;-54
2021/04/06 09:07:25;;;;;;;0.10;0.00;;;3.20;99.90;;;2.78;76.15;99619.94;5009101;28;20038;-46
2021/04/06 09:10:12;;;;;;;0.22;0.00;;;3.20;99.90;;;2.85;72.82;99627.06;5009484;28;20033;-48
2021/04/06 09:12:43;;;;;;;0.73;0.15;;;3.30;99.90;;;2.87;72.64;99622.63;5008054;28;20136;-52
2021/04/06 09:15:13;;;;;;;0.08;0.00;;;3.30;99.90;;;2.95;74.67;99638.28;5009305;28;20033;-49
2021/04/06 09:17:40;;;;;;;0.28;0.00;;;3.40;99.90;;;2.96;73.13;99637.34;5007582;28;20030;-56
2021/04/06 09:20:16;;;;;;;0.00;0.00;;;3.40;99.90;;;2.96;73.07;99641.69;5009145;28;20484;-48
2021/04/06 09:22:51;;;;;;;0.47;0.08;;;3.50;99.90;;;3.02;72.91;99663.56;5008014;28;20042;-50
2021/04/06 09:25:24;;;;;;;0.23;0.00;;;3.50;99.90;;;3.00;69.74;99682.53;5009318;28;20037;-54
2021/04/06 09:28:05;;;;;;;0.15;0.00;;;3.50;99.90;;;3.01;72.09;99670.47;5008622;28;20084;-50
2021/04/06 09:30:40;;;;;;;0.17;0.00;;;3.50;99.90;;;3.04;69.26;99641.09;5009104;28;20136;-47
2021/04/06 09:33:15;;;;;;;0.30;0.00;;;3.50;99.90;;;2.99;69.84;99685.19;4990827;28;20037;-48
2021/04/06 09:35:51;;;;;;;0.40;0.10;;;3.50;99.90;;;3.05;70.77;99689.06;5009054;28;20076;-53
2021/04/06 09:38:26;;;;;;;0.00;0.00;;;3.60;99.90;;;3.02;70.53;99699.59;5007580;28;20075;-49
2021/04/06 09:40:53;;;;;;;0.80;0.00;;;3.60;99.90;;;2.90;71.44;99706.47;5007659;28;20061;-55
2021/04/06 09:43:20;;;;;;;0.20;0.00;;;3.50;99.90;;;2.91;73.32;99696.06;4990794;28;20567;-48
2021/04/06 09:45:50;;;;;;;3.53;0.10;;;3.50;99.90;;;2.98;71.97;99686.97;4983562;28;20489;-54
2021/04/06 09:48:17;;;;;;;0.80;0.00;;;3.60;99.90;;;2.87;73.76;99710.09;5000480;28;20038;-55
2021/04/06 09:51:14;;;;;;;0.30;0.10;;;3.50;99.90;;;2.82;69.95;99650.47;5001610;28;20572;-51
2021/04/06 09:53:40;;;;;;;0.80;0.00;;;3.50;99.90;;;2.78;73.19;99715.94;5003822;28;20121;-49
2021/04/06 09:56:07;;;;;;;0.57;0.10;;;3.40;99.90;;;2.81;72.78;99727.75;5004082;28;20034;-56
2021/04/06 09:58:36;;;;;;;0.20;0.10;;;3.40;99.90;;;2.77;72.75;99726.34;5000575;28;20035;-47
2021/04/06 10:01:20;;;;;;;0.13;0.00;;;3.40;99.90;;;2.74;70.90;99742.00;5001441;28;20086;-48
2021/04/06 10:03:50;;;;;;;0.20;0.00;;;3.30;99.90;;;2.56;72.26;99739.00;4989509;28;20046;-50
2021/04/06 10:06:16;;;;;;;0.25;0.00;;;3.20;99.90;;;2.55;72.24;99745.91;5003795;28;20044;-44
2021/04/06 10:08:42;;;;;;;2.08;0.10;;;3.10;99.90;;;2.46;73.60;99735.47;5005125;28;20030;-57
2021/04/06 10:11:09;;;;;;;1.85;0.10;;;3.10;99.90;;;2.39;72.92;99736.81;5008273;28;20088;-53
2021/04/06 10:13:38;;;;;;;3.70;0.28;;;3.00;99.90;;;2.36;73.31;99743.03;5005852;28;20034;-48
2021/04/06 10:16:16;;;;;;;2.70;0.20;;;2.90;99.90;;;2.36;74.43;99716.50;4990955;28;20042;-51
2021/04/06 10:18:48;;;;;;;1.35;0.20;;;2.90;99.90;;;2.41;73.73;99716.97;5001679;28;20708;-44
2021/04/06 10:21:26;;;;;;;0.60;0.20;;;3.00;99.90;;;2.40;74.49;99713.56;5007341;28;20465;-49
2021/04/06 10:24:06;;;;;;;1.17;0.20;;;2.90;99.90;;;2.45;73.64;99713.25;5005082;28;20048;-51
2021/04/06 10:26:32;;;;;;;2.78;0.20;;;3.00;99.90;;;2.50;73.40;99711.16;5006506;28;20239;-52
2021/04/06 10:29:08;;;;;;;1.15;0.10;;;3.00;99.90;;;2.59;68.88;99700.22;4983532;28;20030;-48
2021/04/06 10:31:50;;;;;;;1.05;0.10;;;3.10;99.90;;;2.67;70.92;99695.34;5000962;28;21684;-47
2021/04/06 10:34:17;;;;;;;1.55;0.00;;;3.10;99.90;;;2.71;69.11;99686.47;5001067;28;20397;-51
2021/04/06 10:37:00;;;;;;;1.52;0.10;;;3.20;99.90;;;2.83;69.03;99684.72;5007070;28;20116;-52
2021/04/06 10:39:38;;;;;;;1.85;0.10;;;3.30;99.90;;;2.85;68.66;99668.22;5010118;28;20046;-44
2021/04/06 10:42:07;;;;;;;0.85;0.10;;;3.30;99.90;;;2.97;69.11;99667.31;5011122;28;20045;-42
2021/04/06 10:44:34;;;;;;;0.30;0.10;;;3.40;99.90;;;2.92;67.18;99664.25;5010097;28;20041;-45
2021/04/06 10:47:00;;;;;;;0.20;0.03;;;3.50;99.90;;;2.86;68.47;99644.13;5011654;28;20173;-43
2021/04/06 10:49:26;;;;;;;0.88;0.10;;;3.40;99.90;;;2.94;67.04;99666.72;4990664;28;20485;-44
2021/04/06 10:51:56;;;;;;;0.35;0.35;;;3.40;99.90;;;3.04;66.27;99639.34;5014200;28;20473;-44
2021/04/06 10:54:22;;;;;;;0.20;0.00;;;3.50;99.90;;;3.18;65.87;99617.72;5009943;28;20065;-47
2021/04/06 10:56:57;;;;;;;1.65;0.00;;;3.60;99.90;;;3.21;64.58;99638.91;5008072;28;20479;-44